Time;durP1;ratioP1;P1;durP2;ratioP2;P2;SDS_P1;SDS_P2;PMS_P1;PMS_P2;Temp;Humidity;BMP_temperature;BMP_pressure;BME280_temperature;BME280_humidity;BME280_pressure;Samples;Min_cycle;Max_cycle;Signal;HPM_P1;HPM_P2
2021/10/24 00:01:52;;;;;;;34.00;16.57;;;;;;;-1.56;85.87;94032.66;1851700;76;21413;-79
2021/10/24 00:04:18;;;;;;;29.60;16.30;;;;;;;-1.59;85.79;94029.26;1805262;77;21144;-78
2021/10/24 00:06:45;;;;;;;26.55;13.00;;;;;;;-1.55;85.95;94034.22;1784339;77;21092;-80
2021/10/24 00:09:11;;;;;;;21.45;11.40;;;;;;;-1.54;86.01;94037.16;1789593;78;21068;-79
2021/10/24 00:11:39;;;;;;;9.30;4.62;;;;;;;-1.52;86.25;94034.17;1846509;76;21448;-79
2021/10/24 00:14:07;;;;;;;16.97;7.60;;;;;;;-1.47;86.39;94038.85;1840906;75;21123;-79
2021/10/24 00:16:34;;;;;;;22.70;11.35;;;;;;;-1.38;86.53;94036.78;1843946;76;21099;-80
2021/10/24 00:19:01;;;;;;;19.95;10.93;;;;;;;-1.36;86.05;94028.70;1831219;76;21054;-81
2021/10/24 00:21:27;;;;;;;25.57;12.88;;;;;;;-1.34;86.11;94031.86;1847294;76;21505;-79
2021/10/24 00:23:54;;;;;;;31.23;14.87;;;;;;;-1.34;85.99;94038.53;1838026;76;21041;-79
2021/10/24 00:26:21;;;;;;;35.83;16.90;;;;;;;-1.32;85.88;94040.33;1814666;78;21746;-79
2021/10/24 00:28:48;;;;;;;28.05;12.85;;;;;;;-1.30;85.75;94036.05;1777019;78;21595;-80
2021/10/24 00:31:14;;;;;;;32.08;15.32;;;;;;;-1.24;85.74;94032.95;1817344;77;21057;-79
2021/10/24 00:33:41;;;;;;;30.77;14.05;;;;;;;-1.20;85.51;94037.65;1832912;76;21007;-80
2021/10/24 00:36:08;;;;;;;13.98;6.28;;;;;;;-1.16;85.42;94042.64;1836162;75;20948;-78
2021/10/24 00:38:34;;;;;;;15.30;7.75;;;;;;;-1.12;85.41;94042.27;1842414;76;21029;-79
2021/10/24 00:41:01;;;;;;;14.35;7.40;;;;;;;-1.05;85.53;94041.29;1822349;76;21680;-79
2021/10/24 00:43:28;;;;;;;32.20;13.75;;;;;;;-1.04;85.42;94042.86;1833640;76;21026;-78
2021/10/24 00:45:55;;;;;;;12.60;6.83;;;;;;;-1.08;85.50;94049.35;1813354;76;21634;-79
2021/10/24 00:48:21;;;;;;;8.85;5.30;;;;;;;-1.13;86.07;94048.16;1827491;75;21014;-78
2021/10/24 00:50:49;;;;;;;7.78;5.58;;;;;;;-1.13;86.21;94050.02;1840678;76;21117;-79
2021/10/24 00:53:16;;;;;;;6.92;3.72;;;;;;;-1.17;86.04;94049.84;1838104;76;21958;-80
2021/10/24 00:55:44;;;;;;;10.00;5.92;;;;;;;-1.20;86.23;94048.33;1845428;76;21532;-79
2021/10/24 00:58:12;;;;;;;24.23;9.73;;;;;;;-1.22;86.46;94057.43;1809851;76;21028;-80
2021/10/24 01:00:38;;;;;;;26.75;12.73;;;;;;;-1.21;86.30;94054.21;1775979;79;21168;-79
2021/10/24 01:03:05;;;;;;;29.40;12.82;;;;;;;-1.22;86.40;94050.76;1764874;77;21061;-80
2021/10/24 01:05:35;;;;;;;28.80;15.58;;;;;;;-1.17;86.17;94049.84;1794484;78;21099;-79
2021/10/24 01:08:01;;;;;;;35.98;16.35;;;;;;;-1.15;85.75;94044.21;1783755;78;21041;-79
2021/10/24 01:10:29;;;;;;;39.20;18.42;;;;;;;-1.13;85.61;94050.02;1841673;76;21067;-79
2021/10/24 01:12:55;;;;;;;36.13;16.87;;;;;;;-1.10;85.57;94045.41;1830120;76;21010;-79
2021/10/24 01:15:23;;;;;;;32.60;13.93;;;;;;;-1.10;85.47;94046.73;1775499;79;21545;-80
2021/10/24 01:17:51;;;;;;;28.77;12.85;;;;;;;-1.11;85.48;94042.50;1794613;77;21120;-81
2021/10/24 01:20:23;;;;;;;19.57;10.53;;;;;;;-1.10;85.32;94039.52;1785336;78;21056;-79
2021/10/24 01:22:50;;;;;;;29.40;13.25;;;;;;;-1.09;85.22;94034.96;1828902;77;21029;-80
2021/10/24 01:25:17;;;;;;;32.67;15.45;;;;;;;-1.09;85.17;94050.45;1805153;77;21120;-79
2021/10/24 01:27:45;;;;;;;32.28;13.98;;;;;;;-1.10;84.86;94042.73;1824415;76;20975;-80
2021/10/24 01:30:12;;;;;;;30.55;12.78;;;;;;;-1.13;84.79;94042.00;1851242;75;21146;-80
2021/10/24 01:32:38;;;;;;;28.95;12.30;;;;;;;-1.17;84.71;94042.38;1837578;76;21022;-80
2021/10/24 01:35:06;;;;;;;26.70;12.68;;;;;;;-1.19;84.78;94044.03;1869557;75;21049;-80
2021/10/24 01:37:40;;;;;;;26.68;11.88;;;;;;;-1.20;84.67;94045.66;1850082;75;21056;-79
2021/10/24 01:40:10;;;;;;;;;;;;;;;-1.19;84.84;94047.25;1849727;75;21049;-79
2021/10/24 01:42:55;;;;;;;27.07;13.32;;;;;;;-1.17;84.83;94040.49;1820904;77;21054;-79
2021/10/24 01:45:23;;;;;;;21.20;11.20;;;;;;;-1.15;84.82;94046.88;1858864;75;20980;-80
2021/10/24 01:47:51;;;;;;;25.17;12.53;;;;;;;-1.13;84.86;94034.00;1832161;76;21485;-80
2021/10/24 01:50:18;;;;;;;28.50;14.10;;;;;;;-1.14;84.53;94041.77;1847509;76;21133;-81
2021/10/24 01:52:45;;;;;;;30.10;14.05;;;;;;;-1.16;84.52;94043.98;1805293;77;21500;-79
2021/10/24 01:55:13;;;;;;;28.90;14.05;;;;;;;-1.19;84.63;94033.36;1791645;77;21104;-79
2021/10/24 01:57:41;;;;;;;33.83;14.58;;;;;;;-1.19;84.58;94039.25;1806284;77;22237;-80
2021/10/24 02:00:10;;;;;;;36.17;15.40;;;;;;;-1.22;84.54;94040.08;1795420;76;22221;-81
2021/10/24 02:02:46;;;;;;;33.80;15.88;;;;;;;-1.20;84.58;94037.65;1840660;77;21017;-79
2021/10/24 02:05:19;;;;;;;34.27;16.32;;;;;;;-1.17;84.60;94047.16;1769435;78;21081;-81
2021/10/24 02:07:47;;;;;;;26.30;12.35;;;;;;;-1.13;84.59;94038.00;1835864;76;21878;-82
2021/10/24 02:10:16;;;;;;;30.02;14.20;;;;;;;-1.10;84.54;94045.41;1822108;76;21079;-83
2021/10/24 02:12:43;;;;;;;26.90;12.85;;;;;;;-1.09;84.56;94044.30;1811384;76;21063;-80
2021/10/24 02:15:11;;;;;;;25.55;11.90;;;;;;;-1.13;84.36;94046.83;1823181;77;21019;-80
2021/10/24 02:17:39;;;;;;;26.05;11.15;;;;;;;-1.17;84.82;94047.72;1780100;79;21343;-82
2021/10/24 02:20:07;;;;;;;20.68;10.88;;;;;;;-1.22;84.91;94050.76;1783299;78;21113;-81
2021/10/24 02:22:36;;;;;;;28.65;12.88;;;;;;;-1.22;84.96;94045.42;1793804;76;21037;-83
2021/10/24 02:25:05;;;;;;;28.30;13.35;;;;;;;-1.19;85.10;94043.25;1835320;76;22119;-80
2021/10/24 02:27:32;;;;;;;31.15;15.00;;;;;;;-1.17;85.00;94051.72;1822351;77;21065;-80
2021/10/24 02:29:59;;;;;;;32.35;14.98;;;;;;;-1.16;85.08;94051.98;1828301;77;21619;-82
2021/10/24 02:32:25;;;;;;;22.25;11.88;;;;;;;-1.16;85.15;94054.66;1826466;77;21074;-81
2021/10/24 02:35:04;;;;;;;17.00;8.95;;;;;;;-1.14;85.30;94062.58;1792551;77;21022;-80
2021/10/24 02:37:33;;;;;;;26.27;12.65;;;;;;;-1.10;85.41;94058.75;1825161;78;21033;-81
2021/10/24 02:40:03;;;;;;;28.87;13.78;;;;;;;-1.08;85.40;94064.03;1832445;76;21030;-80
2021/10/24 02:42:33;;;;;;;22.65;11.25;;;;;;;-1.09;85.30;94062.47;1851030;76;21130;-82
2021/10/24 02:45:00;;;;;;;20.70;12.05;;;;;;;-1.08;85.23;94069.92;1830783;77;21100;-80
2021/10/24 02:47:27;;;;;;;24.98;12.33;;;;;;;-1.09;85.03;94059.80;1855405;75;21028;-80
2021/10/24 02:49:54;;;;;;;30.70;16.52;;;;;;;-1.09;84.92;94066.98;1854727;76;21053;-79
2021/10/24 02:52:20;;;;;;;28.23;15.00;;;;;;;-1.09;84.86;94075.00;1853173;76;21018;-79
2021/10/24 02:54:47;;;;;;;29.70;13.93;;;;;;;-1.09;84.94;94075.00;1844641;76;21016;-79
2021/10/24 02:57:13;;;;;;;28.65;14.23;;;;;;;-1.09;85.06;94076.33;1836898;76;21113;-80
2021/10/24 02:59:40;;;;;;;29.65;12.10;;;;;;;-1.07;85.20;94073.61;1857879;75;21016;-79
2021/10/24 03:02:07;;;;;;;22.10;10.38;;;;;;;-1.07;85.13;94072.27;1824988;76;20995;-81
2021/10/24 03:04:34;;;;;;;35.35;15.25;;;;;;;-1.06;85.25;94073.84;1824691;76;21062;-80
2021/10/24 03:07:02;;;;;;;30.88;14.28;;;;;;;-1.05;85.16;94082.11;1829229;77;20998;-79
2021/10/24 03:09:29;;;;;;;22.15;9.88;;;;;;;-1.05;85.17;94070.66;1822384;76;21077;-80
2021/10/24 03:11:56;;;;;;;31.00;15.20;;;;;;;-1.04;85.31;94081.56;1842198;76;21022;-79
2021/10/24 03:14:24;;;;;;;37.63;16.57;;;;;;;-1.03;85.37;94081.24;1847904;75;21032;-80
2021/10/24 03:16:51;;;;;;;26.85;12.45;;;;;;;-1.03;85.37;94084.47;1844466;75;21069;-79
2021/10/24 03:19:18;;;;;;;56.23;22.80;;;;;;;-1.04;85.42;94089.02;1830097;77;21005;-80
2021/10/24 03:21:46;;;;;;;52.05;21.40;;;;;;;-1.05;85.39;94086.67;1820605;77;21057;-80
2021/10/24 03:24:13;;;;;;;47.50;18.90;;;;;;;-1.06;85.25;94093.86;1829713;77;21042;-80
2021/10/24 03:26:40;;;;;;;37.65;15.30;;;;;;;-1.04;85.29;94093.58;1860277;75;21045;-80
2021/10/24 03:29:07;;;;;;;46.95;18.73;;;;;;;-1.00;85.36;94092.66;1837075;76;21105;-79
2021/10/24 03:31:34;;;;;;;51.15;20.35;;;;;;;-0.97;85.06;94099.27;1833430;77;21080;-78
2021/10/24 03:34:02;;;;;;;54.63;22.65;;;;;;;-0.97;85.03;94107.28;1840704;77;21089;-78
2021/10/24 03:36:28;;;;;;;47.38;19.62;;;;;;;-0.93;85.02;94102.12;1836157;77;21037;-79
2021/10/24 03:38:55;;;;;;;53.33;20.32;;;;;;;-0.90;84.89;94100.15;1837790;77;21587;-79
2021/10/24 03:41:21;;;;;;;52.30;19.82;;;;;;;-0.87;84.63;94103.00;1852169;75;21514;-78
2021/10/24 03:43:48;;;;;;;44.35;20.12;;;;;;;-0.88;84.49;94103.31;1765415;78;21514;-79
2021/10/24 03:46:15;;;;;;;52.38;22.10;;;;;;;-0.92;84.52;94099.69;1790127;78;21094;-80
2021/10/24 03:48:42;;;;;;;60.25;24.20;;;;;;;-0.93;84.66;94100.23;1811200;76;21042;-81
2021/10/24 03:51:09;;;;;;;53.48;21.77;;;;;;;-0.95;84.85;94109.08;1845539;76;21542;-80
2021/10/24 03:53:36;;;;;;;44.15;17.82;;;;;;;-0.92;85.12;94103.13;1807073;76;21054;-80
2021/10/24 03:56:03;;;;;;;48.65;21.87;;;;;;;-0.90;85.28;94100.15;1770457;78;21256;-80
2021/10/24 03:58:31;;;;;;;46.68;20.30;;;;;;;-0.91;85.54;94110.05;1763994;78;21089;-79
2021/10/24 04:00:58;;;;;;;35.98;15.63;;;;;;;-0.91;85.60;94108.71;1818938;77;21161;-80
2021/10/24 04:03:25;;;;;;;33.92;14.68;;;;;;;-0.96;85.81;94100.84;1808028;77;21071;-81
2021/10/24 04:05:51;;;;;;;43.28;18.48;;;;;;;-0.99;86.19;94112.13;1813260;77;21050;-79
2021/10/24 04:08:19;;;;;;;34.00;14.68;;;;;;;-0.96;86.46;94108.84;1811033;77;21668;-79
2021/10/24 04:10:45;;;;;;;26.40;11.65;;;;;;;-0.90;86.44;94108.16;1805875;77;21540;-80
2021/10/24 04:13:13;;;;;;;28.57;13.15;;;;;;;-0.90;86.40;94108.16;1809791;77;21445;-80
2021/10/24 04:15:42;;;;;;;28.65;12.65;;;;;;;-0.88;86.32;94110.77;1824081;77;21089;-82
2021/10/24 04:18:14;;;;;;;32.05;13.88;;;;;;;-0.83;86.07;94117.34;1805135;78;21077;-80
2021/10/24 04:20:41;;;;;;;29.18;14.30;;;;;;;-0.78;85.84;94115.08;1816377;77;21112;-81
2021/10/24 04:23:08;;;;;;;32.30;15.50;;;;;;;-0.72;85.71;94111.72;1813732;77;21116;-79
2021/10/24 04:25:36;;;;;;;39.88;16.62;;;;;;;-0.65;85.46;94118.74;1807444;77;21540;-81
2021/10/24 04:28:03;;;;;;;44.00;20.88;;;;;;;-0.62;85.21;94114.91;1802498;77;21042;-79
2021/10/24 04:30:30;;;;;;;41.42;19.20;;;;;;;-0.58;85.07;94113.75;1805861;77;21066;-79
2021/10/24 04:32:59;;;;;;;40.12;17.95;;;;;;;-0.58;85.00;94122.55;1809614;77;21127;-79
2021/10/24 04:35:27;;;;;;;58.30;27.07;;;;;;;-0.55;85.13;94119.82;1814358;77;21080;-81
2021/10/24 04:37:53;;;;;;;67.03;30.92;;;;;;;-0.55;84.89;94122.49;1851215;76;21073;-80
2021/10/24 04:40:20;;;;;;;59.33;30.75;;;;;;;-0.56;84.72;94124.37;1848498;75;21044;-81
2021/10/24 04:42:51;;;;;;;37.40;19.20;;;;;;;-0.56;84.42;94123.59;1815107;77;21073;-81
2021/10/24 04:45:18;;;;;;;33.70;19.48;;;;;;;-0.63;84.62;94126.70;1819856;77;21038;-81
2021/10/24 04:47:44;;;;;;;27.80;14.35;;;;;;;-0.73;85.14;94129.63;1846103;75;21054;-80
2021/10/24 04:50:11;;;;;;;9.83;5.80;;;;;;;-0.81;85.57;94134.38;1780146;78;21600;-80
2021/10/24 04:52:38;;;;;;;9.95;5.87;;;;;;;-0.86;86.20;94137.97;1828365;75;21547;-80
2021/10/24 04:55:06;;;;;;;7.78;3.92;;;;;;;-0.85;86.82;94141.42;1846076;75;21543;-81
2021/10/24 04:57:34;;;;;;;8.43;4.03;;;;;;;-0.81;87.13;94141.84;1848987;76;21107;-79
2021/10/24 05:00:05;;;;;;;8.88;4.72;;;;;;;-0.77;87.25;94153.48;1847480;76;21843;-83
2021/10/24 05:02:35;;;;;;;17.95;10.15;;;;;;;-0.80;87.34;94150.63;1806598;77;21049;-80
2021/10/24 05:05:03;;;;;;;10.72;5.75;;;;;;;-0.81;87.67;94149.85;1782386;77;21098;-79
2021/10/24 05:07:31;;;;;;;12.80;7.35;;;;;;;-0.81;87.87;94159.75;1780057;77;21270;-80
2021/10/24 05:09:57;;;;;;;25.40;14.95;;;;;;;-0.78;87.98;94159.92;1791476;78;21077;-82
2021/10/24 05:12:24;;;;;;;32.35;18.23;;;;;;;-0.76;87.84;94167.07;1775848;77;21057;-80
2021/10/24 05:14:53;;;;;;;36.75;20.20;;;;;;;-0.72;87.75;94169.14;1832047;77;21552;-79
2021/10/24 05:17:25;;;;;;;44.77;23.98;;;;;;;-0.68;87.29;94173.56;1844532;75;21071;-79
2021/10/24 05:19:51;;;;;;;39.27;21.70;;;;;;;-0.65;86.94;94185.52;1806301;77;21112;-80
2021/10/24 05:22:20;;;;;;;33.33;19.35;;;;;;;-0.61;86.80;94185.15;1786563;77;21088;-81
2021/10/24 05:24:47;;;;;;;32.40;18.50;;;;;;;-0.60;86.37;94192.06;1834642;77;21636;-81
2021/10/24 05:27:15;;;;;;;32.60;19.17;;;;;;;-0.61;86.26;94197.17;1848338;75;21124;-81
2021/10/24 05:29:43;;;;;;;30.57;18.15;;;;;;;-0.61;86.25;94201.96;1826145;75;21136;-82
2021/10/24 05:32:10;;;;;;;30.68;17.52;;;;;;;-0.56;86.19;94206.41;1768241;78;21616;-80
2021/10/24 05:34:37;;;;;;;31.77;17.67;;;;;;;-0.51;85.88;94207.61;1789934;77;21057;-82
2021/10/24 05:37:15;;;;;;;29.15;15.25;;;;;;;-0.48;85.79;94211.56;1831461;77;21098;-83
2021/10/24 05:39:42;;;;;;;30.55;16.62;;;;;;;-0.48;86.13;94217.69;1773820;79;21085;-79
2021/10/24 05:42:17;;;;;;;25.50;15.57;;;;;;;-0.45;86.55;94225.10;1837356;75;21049;-82
2021/10/24 05:44:44;;;;;;;17.07;9.30;;;;;;;-0.44;86.50;94213.31;1840923;75;21037;-82
2021/10/24 05:47:11;;;;;;;12.25;6.95;;;;;;;-0.47;86.50;94221.94;1837372;75;21048;-80
2021/10/24 05:49:38;;;;;;;34.92;10.70;;;;;;;-0.44;86.91;94233.91;1839040;76;21144;-80
2021/10/24 05:52:07;;;;;;;22.37;12.73;;;;;;;-0.38;87.24;94233.45;1836844;76;21069;-80
2021/10/24 05:54:35;;;;;;;17.85;10.43;;;;;;;-0.30;87.23;94235.40;1842310;76;21103;-79
2021/10/24 05:57:03;;;;;;;5.97;4.90;;;;;;;-0.26;87.35;94245.72;1815361;77;22091;-82
2021/10/24 05:59:42;;;;;;;9.95;5.28;;;;;;;-0.20;87.54;94240.23;1774218;78;21065;-82
2021/10/24 06:02:10;;;;;;;10.88;5.17;;;;;;;-0.12;87.48;94246.16;1794081;77;21111;-80
2021/10/24 06:04:48;;;;;;;14.38;10.30;;;;;;;-0.03;87.48;94257.16;1747540;75;21085;-81
2021/10/24 06:07:19;;;;;;;12.53;8.55;;;;;;;0.05;87.61;94261.52;1832985;77;21478;-79
2021/10/24 06:13:02;;;;;;;15.05;8.48;;;;;;;0.17;87.67;94269.73;1828786;77;21620;-83
2021/10/24 06:14:45;;;;;;;13.70;8.63;;;;;;;0.23;87.24;94276.54;1817934;75;21316;-82
2021/10/24 06:17:13;;;;;;;16.90;10.35;;;;;;;0.28;87.03;94272.93;1837854;75;21631;-83
2021/10/24 06:19:41;;;;;;;23.98;12.15;;;;;;;0.32;86.65;94267.98;1816724;76;21034;-82
2021/10/24 06:22:09;;;;;;;19.17;9.70;;;;;;;0.37;86.08;94291.13;1769394;78;38245;-82
2021/10/24 06:24:36;;;;;;;25.92;15.38;;;;;;;0.40;85.84;94291.30;1761183;79;21371;-82
2021/10/24 06:27:03;;;;;;;26.57;16.55;;;;;;;0.43;85.35;94297.94;1776596;78;21132;-82
2021/10/24 06:29:32;;;;;;;22.25;13.55;;;;;;;0.43;85.10;94303.28;1828102;75;21026;-83
2021/10/24 06:31:59;;;;;;;28.07;14.33;;;;;;;0.39;84.69;94309.02;1802751;77;21743;-82
2021/10/24 06:34:44;;;;;;;;;;;;;;;0.34;84.60;94309.13;1694797;78;22187;-82
2021/10/24 06:37:17;;;;;;;50.03;25.17;;;;;;;0.35;84.54;94313.41;1731081;80;20562;-84
2021/10/24 06:39:41;;;;;;;39.83;21.42;;;;;;;0.36;84.54;94306.95;1838671;76;21289;-81
2021/10/24 06:42:07;;;;;;;32.58;18.02;;;;;;;0.42;84.60;94309.19;1812605;76;21063;-83
2021/10/24 06:44:54;;;;;;;27.82;14.20;;;;;;;0.51;84.36;94309.21;1820039;76;21065;-84
2021/10/24 06:47:27;;;;;;;;;;;;;;;0.56;83.49;94309.06;1844123;76;21978;-82
2021/10/24 06:50:12;;;;;;;24.40;13.60;;;;;;;0.54;83.70;94317.18;1834006;76;20167;-83
2021/10/24 06:52:57;;;;;;;26.53;16.67;;;;;;;0.58;84.32;94324.27;1815679;77;21724;-84
2021/10/24 06:58:04;;;;;;;19.07;9.83;;;;;;;0.65;84.69;94321.16;1816141;77;21539;-83
2021/10/24 07:00:49;;;;;;;12.13;7.17;;;;;;;0.65;84.92;94329.97;1778449;78;21551;-81
2021/10/24 07:03:26;;;;;;;8.15;5.40;;;;;;;0.70;84.99;94331.16;1791213;77;21088;-82
2021/10/24 07:06:07;;;;;;;9.78;5.25;;;;;;;0.79;84.72;94325.84;1808679;77;21793;-84
2021/10/24 07:08:36;;;;;;;11.05;4.50;;;;;;;0.93;84.33;94325.70;1816463;77;21045;-83
2021/10/24 07:11:04;;;;;;;8.50;5.22;;;;;;;1.00;84.34;94320.68;1821129;77;21085;-84
2021/10/24 07:13:31;;;;;;;6.78;4.37;;;;;;;1.09;84.45;94320.69;1822377;77;21077;-82
2021/10/24 07:16:00;;;;;;;6.15;4.37;;;;;;;1.23;84.47;94332.05;1842989;76;21063;-82
2021/10/24 07:18:27;;;;;;;10.10;5.65;;;;;;;1.37;83.97;94328.69;1829778;75;21107;-82
2021/10/24 07:20:53;;;;;;;7.90;4.45;;;;;;;1.49;83.92;94330.73;1824913;77;21215;-83
2021/10/24 07:23:20;;;;;;;7.30;4.70;;;;;;;1.61;83.76;94330.10;1823671;77;20998;-81
2021/10/24 07:26:05;;;;;;;20.12;10.45;;;;;;;1.70;82.98;94326.88;1828229;76;21270;-83
2021/10/24 07:28:33;;;;;;;13.15;7.53;;;;;;;1.78;82.76;94327.42;1845137;75;21119;-82
2021/10/24 07:30:59;;;;;;;24.00;13.83;;;;;;;1.88;82.39;94333.80;1793461;77;21654;-84
2021/10/24 07:33:28;;;;;;;23.05;11.97;;;;;;;2.03;82.07;94330.37;1813733;75;21093;-83
2021/10/24 07:36:02;;;;;;;34.30;17.15;;;;;;;2.18;81.78;94333.89;1772450;77;21043;-83
2021/10/24 07:38:30;;;;;;;27.48;15.68;;;;;;;2.35;81.63;94333.07;1764017;78;21109;-84
2021/10/24 07:40:57;;;;;;;34.53;19.10;;;;;;;2.48;81.14;94333.96;1819571;77;21039;-82
2021/10/24 07:43:26;;;;;;;23.70;13.78;;;;;;;2.59;80.28;94325.79;1813494;77;21102;-84
2021/10/24 07:45:54;;;;;;;26.12;14.63;;;;;;;2.69;80.40;94324.09;1783860;77;21378;-84
2021/10/24 07:48:25;;;;;;;28.87;15.80;;;;;;;2.76;79.53;94321.70;1781434;78;21127;-84
2021/10/24 07:50:52;;;;;;;25.95;13.20;;;;;;;2.82;78.84;94324.44;1785078;78;21057;-84
2021/10/24 07:53:29;;;;;;;17.73;10.55;;;;;;;2.98;77.89;94319.86;1777109;78;21025;-85
2021/10/24 07:56:02;;;;;;;21.85;12.30;;;;;;;2.98;77.89;94319.86;1781073;78;21079;-85
2021/10/24 07:58:36;;;;;;;16.85;8.88;;;;;;;3.18;76.33;94322.34;1782543;79;21084;-85
2021/10/24 08:01:04;;;;;;;11.48;5.78;;;;;;;3.18;76.33;94322.34;1775124;78;21022;-84
2021/10/24 08:03:32;;;;;;;12.25;6.35;;;;;;;3.39;74.72;94316.43;1788394;77;21054;-83
2021/10/24 08:05:59;;;;;;;11.33;6.53;;;;;;;4.27;73.48;94311.84;1782377;78;21045;-83
2021/10/24 08:08:27;;;;;;;5.95;4.03;;;;;;;4.27;73.48;94311.84;1778963;78;22094;-83
2021/10/24 08:10:57;;;;;;;6.92;4.25;;;;;;;4.59;69.89;94317.75;1789399;78;21042;-83
2021/10/24 08:13:24;;;;;;;9.13;3.80;;;;;;;4.74;67.73;94316.30;1794804;77;21107;-83
2021/10/24 08:15:52;;;;;;;12.90;8.65;;;;;;;4.82;66.46;94315.97;1827070;76;21706;-84
2021/10/24 08:18:19;;;;;;;7.90;4.72;;;;;;;4.97;66.24;94316.64;1770136;78;21112;-83
2021/10/24 08:21:06;;;;;;;3.83;2.55;;;;;;;5.40;65.52;94317.94;1742188;78;21983;-83
2021/10/24 08:23:33;;;;;;;3.47;2.25;;;;;;;5.80;61.55;94320.66;1794004;77;21085;-82
2021/10/24 08:26:00;;;;;;;3.08;2.10;;;;;;;5.92;59.68;94321.20;1824553;77;21961;-82
2021/10/24 08:28:27;;;;;;;1.92;1.72;;;;;;;6.03;59.77;94324.98;1821845;77;21102;-82
2021/10/24 08:31:02;;;;;;;2.42;1.77;;;;;;;6.17;57.01;94326.48;1820045;77;21061;-82
2021/10/24 08:33:39;;;;;;;2.47;1.27;;;;;;;6.21;57.00;94329.53;1820097;77;21784;-82
2021/10/24 08:36:05;;;;;;;3.90;1.77;;;;;;;6.13;56.14;94335.06;1818676;77;21087;-83
2021/10/24 08:38:33;;;;;;;2.17;1.47;;;;;;;6.00;55.58;94331.07;1795204;76;21147;-82
2021/10/24 08:41:01;;;;;;;2.02;1.30;;;;;;;5.91;56.21;94329.63;1712805;81;21120;-81
2021/10/24 08:43:30;;;;;;;3.80;1.67;;;;;;;5.90;56.65;94332.87;1802685;77;21014;-83
2021/10/24 08:45:56;;;;;;;3.67;1.77;;;;;;;5.86;56.24;94338.73;1775536;78;21379;-82
2021/10/24 08:48:25;;;;;;;2.40;1.45;;;;;;;5.79;56.75;94331.78;1789332;77;21049;-82
2021/10/24 08:50:51;;;;;;;1.17;0.98;;;;;;;5.71;55.61;94336.75;1820743;76;21069;-81
2021/10/24 08:53:21;;;;;;;3.00;1.10;;;;;;;5.68;56.19;94337.43;1818310;77;21644;-81
2021/10/24 08:55:48;;;;;;;2.60;1.37;;;;;;;5.72;54.74;94341.05;1795094;77;21128;-83
2021/10/24 08:58:15;;;;;;;3.35;1.92;;;;;;;5.73;55.90;94337.21;1795733;78;21115;-82
2021/10/24 09:00:42;;;;;;;2.65;1.90;;;;;;;5.78;56.23;94344.49;1795258;78;21093;-82
2021/10/24 09:03:12;;;;;;;3.62;1.87;;;;;;;5.77;55.05;94340.80;1784170;78;21010;-84
2021/10/24 09:05:44;;;;;;;3.15;1.55;;;;;;;5.73;54.89;94339.91;1750675;77;21141;-84
2021/10/24 09:10:53;;;;;;;2.58;1.90;;;;;;;5.65;54.03;94343.53;1790382;78;21796;-82
2021/10/24 09:13:24;;;;;;;2.02;1.42;;;;;;;5.59;53.57;94345.66;1803148;77;21362;-84
2021/10/24 09:15:56;;;;;;;2.83;1.70;;;;;;;5.55;54.69;94345.56;1767733;78;21053;-81
2021/10/24 09:18:37;;;;;;;2.12;1.40;;;;;;;5.65;55.41;94342.97;1771456;78;21065;-82
2021/10/24 09:21:19;;;;;;;5.03;2.85;;;;;;;5.84;54.88;94339.66;1734834;78;21062;-81
2021/10/24 09:23:47;;;;;;;5.20;3.02;;;;;;;6.03;54.56;94341.75;1744572;80;21104;-84
2021/10/24 09:26:25;;;;;;;3.92;2.00;;;;;;;6.13;53.65;94337.22;1829639;76;21548;-83
2021/10/24 09:29:08;;;;;;;2.47;1.60;;;;;;;6.21;54.11;94332.80;1793366;76;21059;-83
2021/10/24 09:31:44;;;;;;;1.27;1.00;;;;;;;6.37;53.24;94323.37;1789617;76;21376;-82
2021/10/24 09:34:21;;;;;;;1.47;0.90;;;;;;;6.43;52.67;94331.42;1765718;77;21681;-81
2021/10/24 09:36:53;;;;;;;1.17;0.68;;;;;;;6.41;51.76;94329.66;1800011;77;21073;-80
2021/10/24 09:39:29;;;;;;;0.82;0.80;;;;;;;6.40;52.07;94328.09;1747882;77;21069;-80
2021/10/24 09:42:19;;;;;;;1.15;1.02;;;;;;;6.51;51.79;94324.53;1792978;76;21152;-82
2021/10/24 09:45:09;;;;;;;2.05;1.22;;;;;;;6.66;50.99;94333.01;1762308;77;21063;-85
2021/10/24 09:47:46;;;;;;;1.72;1.30;;;;;;;6.82;50.92;94347.31;1826582;75;21068;-83
2021/10/24 09:53:30;;;;;;;3.70;2.58;;;;;;;6.82;49.95;94354.06;1835504;75;21661;-82
2021/10/24 09:56:03;;;;;;;4.47;2.45;;;;;;;6.65;50.61;94373.30;1821911;76;21090;-82
2021/10/24 09:58:38;;;;;;;3.85;2.10;;;;;;;6.53;52.47;94368.19;1784517;77;21109;-82
2021/10/24 10:01:08;;;;;;;2.50;1.67;;;;;;;6.61;53.98;94362.41;1831720;75;21126;-83
2021/10/24 10:03:36;;;;;;;2.62;1.62;;;;;;;6.75;53.69;94373.59;1815373;76;21118;-82
2021/10/24 10:06:03;;;;;;;2.15;1.55;;;;;;;6.79;52.82;94376.38;1781611;76;21271;-85
2021/10/24 10:08:30;;;;;;;1.30;1.02;;;;;;;6.84;53.61;94372.63;1827491;77;21050;-83
2021/10/24 10:13:42;;;;;;;3.37;1.60;;;;;;;6.98;53.09;94371.64;1868122;75;28869;-81
2021/10/24 10:16:14;;;;;;;2.12;1.67;;;;;;;7.00;51.88;94374.80;1835971;77;21067;-84
2021/10/24 10:19:03;;;;;;;2.75;1.50;;;;;;;6.98;52.57;94366.23;1840708;75;21759;-81
2021/10/24 10:21:39;;;;;;;1.75;1.30;;;;;;;6.94;51.73;94359.38;1790887;77;21049;-81
2021/10/24 10:24:09;;;;;;;2.30;1.37;;;;;;;6.79;52.35;94364.22;1733674;81;21081;-83
2021/10/24 10:26:45;;;;;;;1.98;1.82;;;;;;;6.65;52.49;94364.62;1730765;80;21038;-82
2021/10/24 10:29:13;;;;;;;2.02;1.50;;;;;;;6.52;53.27;94359.09;1700763;83;21060;-80
2021/10/24 10:32:03;;;;;;;2.12;1.55;;;;;;;6.51;53.37;94358.88;1769032;79;21159;-81
2021/10/24 10:34:30;;;;;;;2.47;1.67;;;;;;;6.48;53.74;94355.51;1749684;79;21076;-84
2021/10/24 10:36:59;;;;;;;2.10;1.37;;;;;;;6.49;53.59;94356.50;1703623;80;21638;-81
2021/10/24 10:39:37;;;;;;;1.57;1.42;;;;;;;6.51;53.58;94357.52;1779209;78;21104;-81
2021/10/24 10:42:33;;;;;;;1.77;1.62;;;;;;;6.63;53.60;94356.67;1782446;78;21139;-81
2021/10/24 10:45:19;;;;;;;2.37;1.57;;;;;;;6.80;52.90;94362.51;1810230;76;21119;-83
2021/10/24 10:47:56;;;;;;;3.72;1.85;;;;;;;6.85;52.74;94364.19;1809545;77;22297;-83
2021/10/24 10:50:41;;;;;;;2.62;1.52;;;;;;;6.86;52.91;94360.34;1799346;78;21623;-84
2021/10/24 10:53:09;;;;;;;;;;;;;;;6.90;53.28;94353.11;1791644;79;21971;-81
2021/10/24 10:56:08;;;;;;;7.00;2.90;;;;;;;7.00;53.21;94353.16;1807936;77;20175;-81
2021/10/24 10:58:40;;;;;;;4.23;2.63;;;;;;;7.14;53.60;94356.19;1812409;77;21587;-82
2021/10/24 11:01:34;;;;;;;4.80;2.70;;;;;;;7.26;52.20;94360.74;1760777;79;21132;-82
2021/10/24 11:04:16;;;;;;;2.58;1.92;;;;;;;7.21;51.81;94349.59;1819294;77;21096;-81
2021/10/24 11:06:50;;;;;;;3.08;2.00;;;;;;;7.10;51.86;94359.95;1796642;76;21661;-81
2021/10/24 11:09:46;;;;;;;14.10;7.00;;;;;;;7.02;51.89;94361.13;1800362;77;21081;-81
2021/10/24 11:12:36;;;;;;;4.28;1.72;;;;;;;7.03;51.84;94369.48;1786540;78;21178;-81
2021/10/24 11:15:14;;;;;;;2.75;1.95;;;;;;;7.06;50.65;94372.03;1751864;79;21042;-80
2021/10/24 11:17:48;;;;;;;3.45;2.35;;;;;;;7.06;50.41;94359.29;1759043;78;21125;-81
2021/10/24 11:20:27;;;;;;;5.45;2.58;;;;;;;7.16;51.04;94355.28;1769377;78;21135;-83
2021/10/24 11:23:01;;;;;;;5.78;2.20;;;;;;;7.38;51.32;94359.28;1824075;77;21116;-83
2021/10/24 11:25:37;;;;;;;3.33;1.80;;;;;;;7.55;50.24;94356.17;1758890;77;21457;-84
2021/10/24 11:28:18;;;;;;;2.08;1.42;;;;;;;7.66;49.32;94353.70;1766953;78;21038;-83
2021/10/24 11:30:45;;;;;;;2.65;1.87;;;;;;;7.71;49.74;94361.58;1812846;77;21060;-82
2021/10/24 11:33:13;;;;;;;4.62;2.65;;;;;;;7.75;47.79;94356.23;1781534;78;21100;-84
2021/10/24 11:35:42;;;;;;;3.35;1.40;;;;;;;7.65;48.58;94353.50;1796071;78;21116;-82
2021/10/24 11:38:12;;;;;;;4.03;1.80;;;;;;;7.70;48.09;94350.50;1792341;79;21981;-83
2021/10/24 11:40:49;;;;;;;3.42;2.00;;;;;;;7.76;48.56;94355.88;1781772;76;21722;-83
2021/10/24 11:43:18;;;;;;;2.45;1.80;;;;;;;7.83;48.11;94356.60;1755146;78;21101;-82
2021/10/24 11:45:55;;;;;;;2.02;1.40;;;;;;;7.89;48.16;94355.73;1808497;77;21106;-84
2021/10/24 11:48:30;;;;;;;1.65;1.32;;;;;;;7.89;47.24;94347.61;1801301;77;21675;-82
2021/10/24 11:51:06;;;;;;;1.42;1.20;;;;;;;7.87;47.55;94345.27;1752272;78;21089;-83
2021/10/24 11:53:38;;;;;;;1.98;1.30;;;;;;;7.88;47.08;94353.60;1831679;77;21050;-83
2021/10/24 11:56:10;;;;;;;2.02;1.60;;;;;;;7.90;47.50;94364.07;1836041;76;21069;-84
2021/10/24 12:01:20;;;;;;;5.70;3.67;;;;;;;7.91;46.71;94352.12;1828084;77;21028;-83